Time;durP1;ratioP1;P1;durP2;ratioP2;P2;SDS_P1;SDS_P2;PMS_P1;PMS_P2;Temp;Humidity;BMP_temperature;BMP_pressure;BME280_temperature;BME280_humidity;BME280_pressure;Samples;Min_cycle;Max_cycle;Signal;HPM_P1;HPM_P2
2023/08/22 00:00:04;;;;;;;12.30;5.10;;;24.90;72.20;;;;;;5020574;28;20459;-78
2023/08/22 00:02:39;;;;;;;8.30;4.90;;;24.90;72.00;;;;;;5020240;28;20463;-78
2023/08/22 00:05:08;;;;;;;14.97;5.70;;;24.90;72.10;;;;;;5018587;28;20470;-78
2023/08/22 00:07:38;;;;;;;12.77;5.73;;;24.80;72.10;;;;;;5020543;28;20535;-78
2023/08/22 00:10:08;;;;;;;9.50;5.83;;;24.80;72.20;;;;;;5025037;28;20467;-78
2023/08/22 00:12:37;;;;;;;9.13;5.37;;;24.70;72.30;;;;;;5015140;28;20512;-78
2023/08/22 00:15:10;;;;;;;13.27;5.87;;;24.70;72.30;;;;;;5019865;28;20489;-79
2023/08/22 00:17:38;;;;;;;9.20;5.67;;;24.70;72.40;;;;;;5017694;28;20882;-78
2023/08/22 00:20:08;;;;;;;9.67;5.20;;;24.60;72.50;;;;;;5020880;28;20478;-78
2023/08/22 00:22:36;;;;;;;9.50;6.30;;;24.60;72.60;;;;;;5019931;28;20456;-79
2023/08/22 00:25:04;;;;;;;10.37;5.63;;;24.60;72.60;;;;;;5019842;28;20456;-78
2023/08/22 00:27:34;;;;;;;10.47;5.67;;;24.60;72.60;;;;;;5023263;28;20892;-78
2023/08/22 00:30:03;;;;;;;10.80;5.60;;;24.60;72.60;;;;;;5022276;28;20456;-78
2023/08/22 00:32:32;;;;;;;10.30;4.77;;;24.60;72.70;;;;;;5018243;28;20536;-78
2023/08/22 00:35:01;;;;;;;9.67;5.10;;;24.60;72.80;;;;;;5025189;28;20994;-78
2023/08/22 00:37:29;;;;;;;8.53;5.53;;;24.50;72.70;;;;;;5023117;28;20462;-78
2023/08/22 00:40:00;;;;;;;10.23;5.67;;;24.50;72.70;;;;;;5030178;28;20455;-78
2023/08/22 00:42:28;;;;;;;8.63;4.80;;;24.50;72.70;;;;;;5020767;28;20472;-78
2023/08/22 00:44:56;;;;;;;8.80;5.60;;;24.40;72.70;;;;;;5051978;28;20460;-78
2023/08/22 00:47:25;;;;;;;11.93;6.10;;;24.40;72.90;;;;;;5018430;28;20547;-78
2023/08/22 00:49:55;;;;;;;11.30;6.30;;;24.40;73.00;;;;;;5024492;28;20551;-78
2023/08/22 00:52:23;;;;;;;11.60;5.87;;;24.40;73.00;;;;;;5049966;28;20504;-77
2023/08/22 00:54:51;;;;;;;11.50;6.20;;;24.30;73.00;;;;;;5022539;28;20558;-78
2023/08/22 00:57:20;;;;;;;11.23;5.70;;;24.30;73.00;;;;;;5030167;28;20551;-79
2023/08/22 00:59:48;;;;;;;11.20;5.93;;;24.30;73.20;;;;;;5024386;28;20460;-79
2023/08/22 01:02:16;;;;;;;10.33;5.80;;;24.30;73.30;;;;;;5024358;28;20846;-78
2023/08/22 01:04:45;;;;;;;9.10;5.70;;;24.30;73.30;;;;;;5023565;28;20476;-78
2023/08/22 01:07:26;;;;;;;9.60;5.60;;;24.30;73.30;;;;;;5020700;28;21021;-78
2023/08/22 01:10:00;;;;;;;9.07;6.00;;;24.30;73.30;;;;;;5023684;28;20468;-78
2023/08/22 01:12:33;;;;;;;12.90;5.90;;;24.20;73.30;;;;;;5022586;28;20459;-78
2023/08/22 01:15:12;;;;;;;9.43;5.67;;;24.20;73.30;;;;;;5009880;28;20491;-78
2023/08/22 01:17:42;;;;;;;13.33;5.30;;;24.20;73.30;;;;;;5025160;28;20865;-78
2023/08/22 01:20:12;;;;;;;14.93;6.93;;;24.20;73.30;;;;;;5023287;28;20470;-78
2023/08/22 01:22:42;;;;;;;11.20;5.73;;;24.20;73.30;;;;;;5020376;28;20469;-78
2023/08/22 01:25:10;;;;;;;12.83;6.03;;;24.10;73.40;;;;;;5021808;28;20884;-79
2023/08/22 01:27:51;;;;;;;11.30;5.87;;;24.10;73.40;;;;;;5020279;28;20996;-78
2023/08/22 01:30:24;;;;;;;12.17;6.37;;;24.10;73.50;;;;;;5019442;28;20478;-78
2023/08/22 01:32:53;;;;;;;10.63;5.77;;;24.10;73.50;;;;;;5021930;28;20460;-78
2023/08/22 01:35:24;;;;;;;10.87;5.70;;;24.00;73.60;;;;;;5043360;28;21029;-78
2023/08/22 01:37:56;;;;;;;9.37;5.70;;;24.00;73.60;;;;;;5022998;28;20502;-78
2023/08/22 01:40:25;;;;;;;10.33;5.40;;;24.10;73.60;;;;;;5049340;28;20453;-79
2023/08/22 01:42:53;;;;;;;9.60;5.63;;;24.00;73.60;;;;;;5023230;28;20548;-79
2023/08/22 01:45:21;;;;;;;10.60;5.33;;;24.00;73.70;;;;;;5021057;28;20483;-79
2023/08/22 01:47:50;;;;;;;10.40;5.37;;;24.00;73.70;;;;;;5035199;28;20452;-77
2023/08/22 01:50:19;;;;;;;9.37;5.40;;;24.00;73.70;;;;;;5027784;28;20471;-78
2023/08/22 01:52:47;;;;;;;8.67;5.10;;;24.00;73.80;;;;;;5025572;28;20487;-78
2023/08/22 01:55:19;;;;;;;9.67;5.70;;;24.00;73.80;;;;;;5029702;28;21124;-79
2023/08/22 01:57:47;;;;;;;13.80;5.60;;;24.00;73.70;;;;;;5025451;28;20473;-78
2023/08/22 02:00:15;;;;;;;11.30;6.13;;;24.00;73.60;;;;;;5023879;28;20455;-79
2023/08/22 02:02:43;;;;;;;10.10;6.00;;;23.90;73.60;;;;;;5020488;28;20444;-78
2023/08/22 02:05:11;;;;;;;15.13;6.53;;;23.90;73.50;;;;;;5022624;28;20958;-79
2023/08/22 02:07:39;;;;;;;10.80;5.90;;;23.90;73.60;;;;;;5019061;28;20471;-78
2023/08/22 02:10:08;;;;;;;11.00;5.47;;;23.80;73.70;;;;;;5023738;28;20448;-78
2023/08/22 02:12:44;;;;;;;10.60;5.50;;;23.80;73.70;;;;;;5020438;28;20452;-78
2023/08/22 02:15:13;;;;;;;12.40;5.97;;;23.80;73.80;;;;;;5023804;28;20549;-79
2023/08/22 02:17:41;;;;;;;14.93;6.13;;;23.70;73.90;;;;;;5027166;28;20542;-78
2023/08/22 02:20:10;;;;;;;11.70;5.50;;;23.70;74.00;;;;;;5022053;28;20466;-79
2023/08/22 02:22:40;;;;;;;13.97;6.00;;;23.80;74.00;;;;;;5038969;28;20460;-77
2023/08/22 02:25:09;;;;;;;8.77;5.80;;;23.70;74.00;;;;;;5028364;28;20451;-78
2023/08/22 02:27:37;;;;;;;10.90;6.83;;;23.70;74.00;;;;;;5020919;28;20456;-78
2023/08/22 02:30:09;;;;;;;13.30;4.90;;;23.70;74.00;;;;;;5021615;28;21170;-78
2023/08/22 02:32:40;;;;;;;12.60;5.40;;;23.70;74.10;;;;;;4998217;28;20461;-78
2023/08/22 02:35:09;;;;;;;8.57;5.40;;;23.70;74.10;;;;;;5003141;28;20509;-78
2023/08/22 02:37:37;;;;;;;11.43;5.63;;;23.70;74.00;;;;;;4998788;28;20516;-78
2023/08/22 02:40:08;;;;;;;12.47;6.30;;;23.60;74.00;;;;;;4997682;28;20461;-79
2023/08/22 02:42:37;;;;;;;7.97;5.33;;;23.60;74.00;;;;;;5001728;28;20472;-78
2023/08/22 02:45:08;;;;;;;13.33;5.67;;;23.60;74.20;;;;;;5004271;28;20507;-78
2023/08/22 02:47:37;;;;;;;11.63;6.43;;;23.60;74.20;;;;;;4999941;28;20464;-79
2023/08/22 02:50:08;;;;;;;12.50;6.37;;;23.60;74.20;;;;;;5002073;28;20866;-79
2023/08/22 02:52:37;;;;;;;12.67;6.50;;;23.50;74.20;;;;;;4997868;28;20472;-78
2023/08/22 02:55:06;;;;;;;8.73;5.63;;;23.50;74.30;;;;;;5001051;28;20927;-78
2023/08/22 02:57:35;;;;;;;9.00;5.90;;;23.50;74.30;;;;;;5001725;28;20456;-79
2023/08/22 03:00:05;;;;;;;8.63;5.43;;;23.50;74.40;;;;;;5002047;28;20449;-78
2023/08/22 03:02:35;;;;;;;9.13;5.73;;;23.50;74.30;;;;;;5019710;28;20487;-78
2023/08/22 03:05:06;;;;;;;13.43;5.90;;;23.50;74.40;;;;;;5004371;28;20457;-78
2023/08/22 03:07:35;;;;;;;9.77;6.20;;;23.50;74.40;;;;;;5005777;28;20458;-78
2023/08/22 03:10:04;;;;;;;10.50;6.40;;;23.40;74.40;;;;;;5015699;28;20457;-79
2023/08/22 03:12:34;;;;;;;10.30;5.80;;;23.40;74.50;;;;;;5007535;28;20459;-78
2023/08/22 03:15:03;;;;;;;13.57;6.10;;;23.40;74.50;;;;;;5006940;28;20485;-79
2023/08/22 03:17:36;;;;;;;11.13;6.63;;;23.40;74.50;;;;;;5005434;28;20559;-78
2023/08/22 03:20:07;;;;;;;9.90;5.90;;;23.40;74.50;;;;;;5004865;28;20868;-78
2023/08/22 03:22:35;;;;;;;11.67;6.50;;;23.40;74.50;;;;;;5002118;28;20822;-79
2023/08/22 03:25:03;;;;;;;10.13;6.00;;;23.40;74.40;;;;;;5007009;28;20468;-78
2023/08/22 03:27:34;;;;;;;10.20;6.00;;;23.40;74.50;;;;;;5005531;28;20457;-79
2023/08/22 03:30:03;;;;;;;13.40;6.67;;;23.40;74.60;;;;;;5004069;28;20548;-78
2023/08/22 03:32:34;;;;;;;8.20;5.50;;;23.40;74.60;;;;;;4999032;28;20477;-78
2023/08/22 03:35:06;;;;;;;11.53;6.37;;;23.40;74.50;;;;;;5009363;28;20488;-78
2023/08/22 03:37:37;;;;;;;9.63;6.00;;;23.30;74.50;;;;;;5003569;28;20467;-79
2023/08/22 03:40:07;;;;;;;10.20;6.07;;;23.30;74.50;;;;;;4997770;28;20575;-78
2023/08/22 03:42:35;;;;;;;9.60;5.70;;;23.30;74.60;;;;;;5001915;28;20814;-78
2023/08/22 03:45:08;;;;;;;12.97;6.10;;;23.20;74.70;;;;;;5033678;28;20502;-78
2023/08/22 03:47:37;;;;;;;11.80;6.30;;;23.20;74.70;;;;;;5002378;28;20508;-79
2023/08/22 03:50:08;;;;;;;12.57;5.10;;;23.20;74.60;;;;;;5003713;28;20878;-79
2023/08/22 03:52:36;;;;;;;11.90;6.87;;;23.20;74.60;;;;;;5006573;28;20464;-78
2023/08/22 03:55:05;;;;;;;13.83;6.73;;;23.20;74.60;;;;;;5001524;28;20539;-78
2023/08/22 03:57:33;;;;;;;12.27;6.73;;;23.20;74.70;;;;;;5004308;28;20955;-79
2023/08/22 04:00:01;;;;;;;9.20;5.47;;;23.20;74.80;;;;;;5027531;28;20479;-78
2023/08/22 04:02:41;;;;;;;10.90;5.77;;;23.20;75.00;;;;;;5021059;28;20551;-78
2023/08/22 04:05:11;;;;;;;10.60;6.70;;;23.20;75.00;;;;;;5019411;28;20530;-78
2023/08/22 04:07:39;;;;;;;12.03;6.90;;;23.20;75.00;;;;;;5024995;28;20922;-78
2023/08/22 04:10:08;;;;;;;20.90;6.83;;;23.20;75.00;;;;;;5025443;28;20487;-78
2023/08/22 04:12:37;;;;;;;14.20;6.90;;;23.20;75.00;;;;;;5015822;28;20493;-78
2023/08/22 04:15:06;;;;;;;21.73;6.80;;;23.20;75.00;;;;;;5017970;28;20511;-78
2023/08/22 04:17:34;;;;;;;10.10;6.73;;;23.20;75.10;;;;;;5024890;28;20462;-78
2023/08/22 04:20:03;;;;;;;9.17;6.50;;;23.20;75.20;;;;;;5022256;28;20460;-79
2023/08/22 04:22:32;;;;;;;11.80;6.00;;;23.20;75.30;;;;;;5025626;28;20465;-78
2023/08/22 04:25:01;;;;;;;9.70;6.53;;;23.20;75.30;;;;;;5024763;28;20813;-78
2023/08/22 04:27:29;;;;;;;11.67;6.50;;;23.20;75.30;;;;;;5020468;28;20461;-78
2023/08/22 04:29:59;;;;;;;13.70;6.77;;;23.20;75.30;;;;;;5017812;28;20459;-79
2023/08/22 04:32:27;;;;;;;9.10;6.47;;;23.20;75.30;;;;;;5022148;28;20566;-78
2023/08/22 04:34:56;;;;;;;14.60;6.00;;;23.20;75.30;;;;;;5019467;28;20503;-78
2023/08/22 04:37:24;;;;;;;11.40;6.77;;;23.20;75.30;;;;;;5022010;28;21181;-78
2023/08/22 04:39:53;;;;;;;10.80;6.03;;;23.20;75.40;;;;;;5022191;28;20456;-78
2023/08/22 04:42:45;;;;;;;11.60;6.63;;;23.20;75.40;;;;;;5027911;28;20463;-78
2023/08/22 04:45:14;;;;;;;10.93;5.77;;;23.20;75.40;;;;;;5023830;28;20456;-77
2023/08/22 04:47:42;;;;;;;9.10;5.77;;;23.20;75.40;;;;;;5023663;28;20539;-78
2023/08/22 04:50:12;;;;;;;11.47;6.47;;;23.20;75.40;;;;;;5023207;28;21335;-77
2023/08/22 04:52:40;;;;;;;12.60;5.73;;;23.20;75.40;;;;;;5018305;28;20507;-78
2023/08/22 04:55:10;;;;;;;11.03;5.87;;;23.20;75.30;;;;;;5017934;28;20554;-79
2023/08/22 04:57:38;;;;;;;10.10;5.97;;;23.20;75.30;;;;;;5022153;28;20471;-78
2023/08/22 05:00:09;;;;;;;9.33;6.27;;;23.20;75.30;;;;;;5029511;28;20455;-79
2023/08/22 05:02:37;;;;;;;14.27;6.33;;;23.20;75.40;;;;;;5024779;28;20459;-78
2023/08/22 05:05:09;;;;;;;12.43;6.20;;;23.20;75.50;;;;;;5027031;28;20487;-78
2023/08/22 05:07:38;;;;;;;12.60;7.07;;;23.20;75.60;;;;;;5020427;28;20467;-77
2023/08/22 05:10:08;;;;;;;12.27;6.53;;;23.40;75.70;;;;;;5019091;28;21033;-78
2023/08/22 05:12:37;;;;;;;10.50;6.83;;;23.80;75.60;;;;;;5025547;28;20672;-79
2023/08/22 05:15:07;;;;;;;12.73;6.70;;;24.20;74.50;;;;;;5032038;28;20460;-78
2023/08/22 05:17:37;;;;;;;11.80;6.40;;;24.20;73.90;;;;;;5028863;28;20523;-78
2023/08/22 05:20:10;;;;;;;12.73;7.37;;;24.00;73.90;;;;;;5027997;28;20482;-78
2023/08/22 05:22:38;;;;;;;14.90;7.20;;;24.00;75.10;;;;;;5034948;28;20456;-78
2023/08/22 05:25:07;;;;;;;9.53;6.67;;;24.50;75.50;;;;;;5025148;28;20463;-79
2023/08/22 05:27:37;;;;;;;12.00;7.23;;;25.50;74.80;;;;;;5022095;28;20533;-79
2023/08/22 05:30:08;;;;;;;12.37;6.03;;;26.50;73.50;;;;;;5024771;28;20461;-78
2023/08/22 05:32:36;;;;;;;9.10;6.07;;;27.60;72.00;;;;;;5020229;28;20469;-79
2023/08/22 05:35:05;;;;;;;10.80;6.50;;;28.50;70.50;;;;;;5020410;28;20464;-78
2023/08/22 05:37:34;;;;;;;10.03;5.83;;;29.50;68.90;;;;;;5022185;28;20523;-79
2023/08/22 05:40:06;;;;;;;13.23;6.80;;;30.40;67.30;;;;;;5029141;28;20486;-79
2023/08/22 05:42:34;;;;;;;10.40;6.30;;;31.20;65.80;;;;;;5024074;28;20517;-79
2023/08/22 05:45:04;;;;;;;11.07;7.27;;;32.10;64.20;;;;;;5028483;28;20456;-79
2023/08/22 05:47:32;;;;;;;11.67;6.23;;;32.80;62.60;;;;;;5023603;28;20460;-79
2023/08/22 05:50:00;;;;;;;13.50;6.83;;;33.50;61.40;;;;;;5022333;28;20978;-79
2023/08/22 05:52:28;;;;;;;10.07;6.63;;;34.10;59.80;;;;;;5027115;28;20483;-78
2023/08/22 05:54:56;;;;;;;12.97;7.80;;;33.90;58.20;;;;;;5022839;28;20452;-78
2023/08/22 05:57:25;;;;;;;15.17;6.97;;;32.70;58.10;;;;;;5023090;28;20937;-79
2023/08/22 05:59:53;;;;;;;9.93;6.77;;;31.30;59.10;;;;;;5026133;28;20498;-79
2023/08/22 06:02:22;;;;;;;14.93;6.67;;;30.00;60.40;;;;;;5043971;28;20512;-78
2023/08/22 06:04:51;;;;;;;11.83;7.00;;;29.00;61.80;;;;;;5013114;28;20524;-78
2023/08/22 06:07:20;;;;;;;9.77;6.53;;;28.20;63.10;;;;;;5021875;28;20471;-79
2023/08/22 06:09:48;;;;;;;12.10;7.30;;;27.50;64.30;;;;;;5031089;28;20555;-79
2023/08/22 06:12:16;;;;;;;9.97;7.30;;;27.00;65.10;;;;;;5032412;28;20518;-79
2023/08/22 06:14:44;;;;;;;10.47;6.30;;;26.60;66.10;;;;;;5030560;28;20455;-79
2023/08/22 06:17:12;;;;;;;13.43;6.67;;;26.30;66.80;;;;;;5022039;28;20515;-79
2023/08/22 06:19:41;;;;;;;8.83;6.57;;;26.00;67.50;;;;;;5025233;28;20957;-78
2023/08/22 06:22:09;;;;;;;12.30;7.80;;;25.80;68.30;;;;;;5022969;28;20532;-79
2023/08/22 06:24:37;;;;;;;14.73;7.23;;;25.70;68.90;;;;;;5027658;28;20456;-79
2023/08/22 06:27:06;;;;;;;9.57;6.50;;;25.60;69.30;;;;;;5025913;28;20472;-79
2023/08/22 06:29:34;;;;;;;12.13;6.93;;;25.50;69.80;;;;;;5031197;28;20789;-79
2023/08/22 06:32:02;;;;;;;11.43;7.63;;;25.40;70.20;;;;;;5034113;28;20498;-79
2023/08/22 06:34:31;;;;;;;12.30;7.83;;;25.30;70.60;;;;;;5030062;28;20455;-79
2023/08/22 06:37:00;;;;;;;20.00;7.33;;;25.30;71.00;;;;;;5023669;28;21037;-79
2023/08/22 06:39:28;;;;;;;10.27;7.33;;;25.30;71.40;;;;;;5025812;28;20848;-80
2023/08/22 06:41:56;;;;;;;10.83;7.50;;;25.20;71.80;;;;;;5024636;28;20492;-78
2023/08/22 06:44:25;;;;;;;11.67;7.80;;;25.20;72.00;;;;;;5023693;28;20490;-78
2023/08/22 06:46:54;;;;;;;10.27;7.80;;;25.20;72.30;;;;;;5026999;28;20503;-80
2023/08/22 06:49:22;;;;;;;11.10;7.70;;;25.20;72.50;;;;;;5022633;28;20551;-78
2023/08/22 06:51:50;;;;;;;14.33;8.37;;;25.20;72.70;;;;;;5023431;28;20527;-79
2023/08/22 06:54:23;;;;;;;13.00;9.57;;;25.20;72.90;;;;;;5021668;28;20455;-79
2023/08/22 06:56:52;;;;;;;21.03;8.47;;;25.30;73.10;;;;;;5023710;28;20563;-79
2023/08/22 06:59:20;;;;;;;14.23;7.80;;;25.30;73.20;;;;;;5021058;28;21120;-79
2023/08/22 07:01:48;;;;;;;10.77;8.63;;;25.30;73.40;;;;;;5020205;28;20488;-79
2023/08/22 07:04:16;;;;;;;12.53;8.70;;;25.30;73.60;;;;;;5029583;28;20502;-79
2023/08/22 07:06:45;;;;;;;13.47;9.07;;;25.30;73.80;;;;;;5028789;28;20466;-79
2023/08/22 07:09:13;;;;;;;11.90;7.23;;;25.30;73.90;;;;;;5028323;28;20452;-79
2023/08/22 07:11:42;;;;;;;10.43;7.70;;;25.40;74.10;;;;;;5023047;28;20459;-79
2023/08/22 07:14:10;;;;;;;10.80;7.67;;;25.40;74.20;;;;;;5025393;28;20559;-80
2023/08/22 07:16:39;;;;;;;12.37;7.67;;;25.50;74.20;;;;;;5023266;28;20983;-79
2023/08/22 07:19:07;;;;;;;8.67;6.97;;;25.60;74.30;;;;;;5030975;28;20538;-79
2023/08/22 07:21:35;;;;;;;10.97;7.53;;;25.60;74.40;;;;;;5030610;28;20463;-79
2023/08/22 07:24:04;;;;;;;12.73;8.27;;;25.70;74.40;;;;;;5027754;28;20989;-79
2023/08/22 07:26:32;;;;;;;10.27;7.40;;;25.70;74.40;;;;;;5028837;28;20443;-80
2023/08/22 07:29:04;;;;;;;12.20;7.53;;;25.80;74.40;;;;;;5023602;28;20460;-79
2023/08/22 07:31:32;;;;;;;11.90;8.20;;;25.80;74.50;;;;;;5024426;28;20510;-78
2023/08/22 07:34:00;;;;;;;12.90;7.97;;;25.80;74.50;;;;;;5028573;28;20698;-79
2023/08/22 07:36:31;;;;;;;13.83;8.40;;;25.80;74.50;;;;;;5033053;28;20439;-79
2023/08/22 07:38:59;;;;;;;9.60;7.70;;;25.90;74.60;;;;;;5032951;28;20453;-79
2023/08/22 07:41:27;;;;;;;15.53;8.20;;;25.90;74.60;;;;;;5028020;28;20478;-79
2023/08/22 07:43:55;;;;;;;10.63;7.07;;;25.90;74.50;;;;;;5031676;28;20455;-79
2023/08/22 07:46:24;;;;;;;13.30;7.47;;;26.00;74.50;;;;;;5029860;28;20928;-80
2023/08/22 07:48:52;;;;;;;13.53;9.23;;;26.00;74.60;;;;;;5021560;28;20456;-80
2023/08/22 07:51:20;;;;;;;10.93;8.13;;;26.00;74.70;;;;;;5025303;28;20468;-80
2023/08/22 07:53:49;;;;;;;11.80;7.90;;;26.00;74.70;;;;;;5026313;28;20535;-80
2023/08/22 07:56:18;;;;;;;12.37;8.17;;;26.00;74.80;;;;;;5021598;28;20532;-80
2023/08/22 07:58:47;;;;;;;12.90;8.27;;;26.10;74.80;;;;;;5017836;28;20457;-80
2023/08/22 08:01:16;;;;;;;10.43;7.90;;;26.10;74.80;;;;;;5022661;28;21025;-80
2023/08/22 08:03:45;;;;;;;13.23;8.30;;;26.10;74.80;;;;;;5023773;28;20458;-79
2023/08/22 08:06:14;;;;;;;11.77;7.67;;;26.20;74.80;;;;;;5022952;28;20829;-80
2023/08/22 08:08:46;;;;;;;12.17;8.20;;;26.20;74.80;;;;;;5023726;28;20467;-79
2023/08/22 08:11:14;;;;;;;10.60;7.00;;;26.30;74.60;;;;;;5029180;28;20547;-80
2023/08/22 08:13:42;;;;;;;11.00;8.27;;;26.30;74.60;;;;;;5025094;28;20451;-79
2023/08/22 08:16:10;;;;;;;11.03;7.60;;;26.30;74.50;;;;;;5022085;28;20462;-79
2023/08/22 08:18:38;;;;;;;11.47;7.50;;;26.40;74.30;;;;;;5027118;28;20474;-79
2023/08/22 08:21:08;;;;;;;10.07;7.50;;;26.40;74.30;;;;;;5025820;28;21021;-79
2023/08/22 08:23:35;;;;;;;12.00;7.90;;;26.40;74.20;;;;;;5027817;28;21202;-79
2023/08/22 08:26:05;;;;;;;9.80;7.47;;;26.40;74.00;;;;;;5020061;28;20914;-79
2023/08/22 08:28:34;;;;;;;11.70;7.13;;;26.40;73.90;;;;;;5026621;28;20535;-79
2023/08/22 08:31:03;;;;;;;10.90;6.60;;;26.40;73.80;;;;;;5034556;28;20480;-79
2023/08/22 08:33:31;;;;;;;11.50;6.97;;;26.50;73.70;;;;;;5025321;28;20490;-80
2023/08/22 08:35:59;;;;;;;14.97;7.27;;;26.50;73.70;;;;;;5028581;28;20452;-79
2023/08/22 08:38:29;;;;;;;11.30;6.90;;;26.50;73.70;;;;;;5029570;28;20482;-79
2023/08/22 08:40:59;;;;;;;10.87;7.10;;;26.60;73.50;;;;;;5026002;28;20454;-80
2023/08/22 08:43:27;;;;;;;10.80;7.90;;;26.60;73.40;;;;;;5022090;28;21016;-80
2023/08/22 08:45:56;;;;;;;13.93;7.33;;;26.60;73.40;;;;;;5028688;28;20800;-80
2023/08/22 08:48:25;;;;;;;10.83;6.97;;;26.60;73.40;;;;;;5063666;28;21090;-80
2023/08/22 08:50:54;;;;;;;15.43;7.87;;;26.70;73.40;;;;;;5028774;28;20453;-81
2023/08/22 08:53:23;;;;;;;10.50;7.47;;;26.70;73.30;;;;;;5026121;28;21022;-80
2023/08/22 08:55:53;;;;;;;11.77;7.33;;;26.80;72.90;;;;;;5025799;28;20491;-79
2023/08/22 08:58:21;;;;;;;13.30;7.60;;;26.80;72.70;;;;;;5030592;28;20488;-80
2023/08/22 09:00:50;;;;;;;14.77;7.20;;;26.80;72.70;;;;;;5021587;28;20559;-79
2023/08/22 09:03:19;;;;;;;12.63;7.43;;;26.90;72.50;;;;;;5006466;28;20560;-79
2023/08/22 09:05:49;;;;;;;10.90;6.80;;;26.90;72.40;;;;;;5012579;28;20964;-80
2023/08/22 09:08:19;;;;;;;11.30;6.43;;;26.90;72.20;;;;;;5007703;28;20485;-79
2023/08/22 09:10:53;;;;;;;10.63;6.70;;;26.90;72.20;;;;;;5013519;28;20479;-80
2023/08/22 09:13:26;;;;;;;12.20;6.53;;;27.00;72.10;;;;;;5014449;28;20493;-80
2023/08/22 09:16:09;;;;;;;11.50;6.93;;;27.10;72.00;;;;;;5014416;28;20543;-78
2023/08/22 09:18:42;;;;;;;10.43;6.47;;;27.10;71.80;;;;;;5013770;28;20487;-80
2023/08/22 09:21:11;;;;;;;12.40;6.50;;;27.20;71.70;;;;;;5010600;28;20453;-78
2023/08/22 09:23:42;;;;;;;11.33;6.97;;;27.20;71.50;;;;;;5016495;28;20450;-78
2023/08/22 09:26:13;;;;;;;12.63;5.97;;;27.20;71.30;;;;;;5023805;28;20464;-79
2023/08/22 09:28:41;;;;;;;12.60;6.73;;;27.30;71.10;;;;;;5012261;28;20460;-79
2023/08/22 09:31:09;;;;;;;11.60;6.43;;;27.30;71.00;;;;;;5016149;28;20479;-78
2023/08/22 09:33:46;;;;;;;10.50;6.07;;;27.40;70.80;;;;;;5028121;28;20503;-80
2023/08/22 09:36:18;;;;;;;10.47;5.87;;;27.40;70.60;;;;;;5026328;28;20536;-79
2023/08/22 09:38:55;;;;;;;11.23;6.20;;;27.50;70.60;;;;;;5026298;28;21260;-79
2023/08/22 09:41:26;;;;;;;9.83;6.37;;;27.50;70.30;;;;;;5032414;28;20521;-79
2023/08/22 09:44:01;;;;;;;8.10;6.03;;;27.50;70.20;;;;;;5022082;28;21278;-81
2023/08/22 09:46:31;;;;;;;11.10;5.70;;;27.50;69.90;;;;;;5023762;28;20463;-80
2023/08/22 09:49:01;;;;;;;9.57;5.30;;;27.60;69.80;;;;;;5032205;28;20505;-81
2023/08/22 09:51:31;;;;;;;10.13;5.63;;;27.70;69.60;;;;;;5043764;28;20482;-79
2023/08/22 09:54:01;;;;;;;8.00;5.30;;;27.70;69.40;;;;;;5023767;28;20978;-80
2023/08/22 09:56:32;;;;;;;10.70;6.03;;;27.70;69.30;;;;;;5024151;28;20868;-80
2023/08/22 09:59:02;;;;;;;10.00;5.43;;;27.80;69.00;;;;;;5014342;28;21067;-80
2023/08/22 10:01:33;;;;;;;7.63;5.47;;;27.90;68.80;;;;;;5023148;28;21099;-80
2023/08/22 10:04:03;;;;;;;11.67;5.10;;;27.90;68.70;;;;;;5021521;28;20535;-81
2023/08/22 10:06:34;;;;;;;10.90;4.53;;;27.90;68.60;;;;;;5026937;28;20969;-80
2023/08/22 10:09:13;;;;;;;12.07;5.37;;;28.00;68.10;;;;;;5023076;28;20452;-81
2023/08/22 10:11:49;;;;;;;9.20;5.30;;;28.00;68.00;;;;;;5028175;28;20481;-80
2023/08/22 10:14:24;;;;;;;11.80;5.60;;;28.00;68.10;;;;;;5027306;28;20469;-80
2023/08/22 10:16:54;;;;;;;9.70;6.37;;;28.10;67.80;;;;;;5033188;28;20494;-78
2023/08/22 10:19:25;;;;;;;8.90;5.20;;;28.10;67.70;;;;;;5045364;28;20842;-81
2023/08/22 10:21:54;;;;;;;10.13;6.03;;;28.10;67.70;;;;;;5023471;28;20517;-79
2023/08/22 10:24:28;;;;;;;9.03;6.43;;;28.20;67.60;;;;;;5030882;28;20844;-79
2023/08/22 10:27:02;;;;;;;11.10;6.13;;;28.20;67.50;;;;;;5021961;28;20727;-80
2023/08/22 10:29:36;;;;;;;8.77;5.50;;;28.30;67.50;;;;;;5030863;28;20478;-79
2023/08/22 10:32:23;;;;;;;7.73;5.00;;;28.20;67.50;;;;;;5023117;28;21239;-79
2023/08/22 10:35:20;;;;;;;8.67;5.50;;;28.20;67.30;;;;;;5023179;28;20988;-80
2023/08/22 10:37:49;;;;;;;10.53;5.50;;;28.20;67.50;;;;;;5058424;28;20460;-79
2023/08/22 10:40:28;;;;;;;9.70;6.53;;;28.20;67.60;;;;;;5017955;28;20548;-80
2023/08/22 10:43:12;;;;;;;10.93;5.30;;;28.30;67.60;;;;;;5022234;28;21155;-80
2023/08/22 10:45:52;;;;;;;9.57;5.43;;;28.30;67.60;;;;;;5019842;28;20470;-80
2023/08/22 10:48:22;;;;;;;10.90;5.67;;;28.30;67.40;;;;;;5019497;28;20986;-79
2023/08/22 10:50:52;;;;;;;10.20;6.07;;;28.30;67.50;;;;;;5025048;28;20466;-78
2023/08/22 10:53:21;;;;;;;9.60;5.27;;;28.40;67.50;;;;;;5027479;28;20455;-80
2023/08/22 11:03:52;;;;;;;13.30;5.97;;;28.50;67.50;;;;;;5024857;28;20451;-80
2023/08/22 11:06:24;;;;;;;9.10;6.03;;;28.50;67.50;;;;;;5018942;28;20464;-80
2023/08/22 11:08:52;;;;;;;14.07;6.20;;;28.50;67.50;;;;;;5025239;28;21220;-79
2023/08/22 11:11:21;;;;;;;9.57;5.20;;;28.60;67.40;;;;;;5035148;28;20447;-79
2023/08/22 11:13:49;;;;;;;8.50;5.83;;;28.60;67.50;;;;;;5026185;28;21123;-78
2023/08/22 11:16:19;;;;;;;9.47;6.60;;;28.60;67.50;;;;;;5021862;28;20448;-80
2023/08/22 11:18:48;;;;;;;8.67;5.80;;;28.70;67.50;;;;;;5023380;28;20478;-79
2023/08/22 11:21:18;;;;;;;9.73;6.23;;;28.70;67.50;;;;;;5023921;28;20555;-80
2023/08/22 11:23:46;;;;;;;8.83;6.20;;;28.70;67.40;;;;;;5027715;28;20459;-81
2023/08/22 11:26:20;;;;;;;8.53;5.63;;;28.80;67.30;;;;;;5024877;28;20483;-80
2023/08/22 11:28:48;;;;;;;9.80;6.37;;;28.80;67.30;;;;;;5023956;28;20932;-79
2023/08/22 11:31:19;;;;;;;11.10;7.00;;;28.80;67.20;;;;;;5022804;28;20472;-78
2023/08/22 11:33:49;;;;;;;8.00;5.77;;;28.80;66.90;;;;;;5032670;28;20471;-79
2023/08/22 11:36:21;;;;;;;11.33;5.90;;;28.80;66.80;;;;;;5026899;28;20531;-78
2023/08/22 11:38:55;;;;;;;12.87;6.27;;;28.80;67.00;;;;;;5023967;28;20475;-80
2023/08/22 11:41:23;;;;;;;8.87;5.73;;;28.80;66.90;;;;;;5028330;28;21146;-79
2023/08/22 11:43:52;;;;;;;10.97;6.53;;;28.80;67.00;;;;;;5025064;28;20780;-78
2023/08/22 11:46:21;;;;;;;10.80;5.90;;;28.80;66.80;;;;;;5025801;28;20475;-79
2023/08/22 11:49:10;;;;;;;10.03;5.93;;;28.90;66.60;;;;;;5021615;28;21208;-80
2023/08/22 11:51:43;;;;;;;12.43;6.40;;;28.90;66.70;;;;;;5028189;28;20455;-81
2023/08/22 11:54:23;;;;;;;9.67;6.40;;;28.90;66.80;;;;;;5029599;28;20447;-80
2023/08/22 11:56:51;;;;;;;9.80;5.90;;;28.90;67.10;;;;;;5028837;28;20466;-80
2023/08/22 11:59:19;;;;;;;9.50;5.87;;;29.00;67.00;;;;;;5025244;28;20479;-80
2023/08/22 12:01:49;;;;;;;11.40;6.00;;;29.00;67.00;;;;;;5016206;28;20523;-80
2023/08/22 12:04:17;;;;;;;9.40;6.10;;;29.00;67.00;;;;;;5036149;28;20486;-79
2023/08/22 12:07:01;;;;;;;9.13;5.10;;;29.10;66.80;;;;;;5031277;28;21568;-80
2023/08/22 12:09:30;;;;;;;8.63;6.13;;;29.10;66.60;;;;;;5028192;28;20466;-79
2023/08/22 12:12:12;;;;;;;10.60;6.90;;;29.10;66.60;;;;;;5026132;28;20460;-79
2023/08/22 12:14:41;;;;;;;8.93;6.30;;;29.20;66.30;;;;;;5025082;28;20467;-80
2023/08/22 12:17:09;;;;;;;8.70;5.83;;;29.20;66.30;;;;;;5023534;28;20455;-79
2023/08/22 12:19:37;;;;;;;8.50;5.73;;;29.20;65.90;;;;;;5027372;28;20525;-79
2023/08/22 12:22:07;;;;;;;10.03;5.70;;;29.20;65.30;;;;;;5021505;28;20934;-78
2023/08/22 12:24:35;;;;;;;8.53;5.10;;;29.20;65.20;;;;;;5029476;28;20451;-79
2023/08/22 12:27:03;;;;;;;11.00;5.97;;;29.30;64.80;;;;;;5021683;28;20548;-79
2023/08/22 12:29:32;;;;;;;9.63;5.93;;;29.30;64.60;;;;;;5029210;28;20448;-81
2023/08/22 12:32:00;;;;;;;7.60;5.20;;;29.30;64.50;;;;;;5026325;28;21168;-80
2023/08/22 12:34:45;;;;;;;9.03;5.33;;;29.30;64.30;;;;;;5027222;28;20464;-80
2023/08/22 12:38:00;;;;;;;12.13;6.07;;;29.30;64.10;;;;;;5026136;28;20460;-79
2023/08/22 12:40:39;;;;;;;8.40;5.20;;;29.20;63.70;;;;;;5029990;28;20532;-80
2023/08/22 12:43:06;;;;;;;11.20;5.60;;;29.20;63.70;;;;;;5043424;28;20960;-80
2023/08/22 12:45:35;;;;;;;12.37;5.83;;;29.20;63.90;;;;;;5025157;28;20465;-79
2023/08/22 12:48:05;;;;;;;9.67;5.80;;;29.20;63.90;;;;;;5026254;28;20495;-80
2023/08/22 12:50:33;;;;;;;8.57;5.50;;;29.30;63.70;;;;;;5036414;28;20543;-79
2023/08/22 12:53:04;;;;;;;9.70;5.70;;;29.30;63.60;;;;;;5025373;28;20448;-80
2023/08/22 12:55:32;;;;;;;10.40;5.97;;;29.40;63.60;;;;;;5024689;28;20478;-79
2023/08/22 12:58:01;;;;;;;8.47;5.60;;;29.40;63.40;;;;;;5036312;28;20447;-81
2023/08/22 13:00:29;;;;;;;9.00;5.97;;;29.30;63.20;;;;;;5031595;28;20465;-78
2023/08/22 13:02:58;;;;;;;9.63;6.03;;;29.30;63.00;;;;;;5029476;28;20525;-80